sensor_id;sensor_type;location;lat;lon;timestamp;P1;durP1;ratioP1;P2;durP2;ratioP2
73776;SDS011;62088;50.240;2.696;2023-04-09T00:00:47;30.27;;;21.60;;
73776;SDS011;62088;50.240;2.696;2023-04-09T00:03:14;22.02;;;12.55;;
73776;SDS011;62088;50.240;2.696;2023-04-09T00:05:41;22.48;;;11.63;;
73776;SDS011;62088;50.240;2.696;2023-04-09T00:08:08;31.55;;;22.83;;
73776;SDS011;62088;50.240;2.696;2023-04-09T00:10:35;32.63;;;22.83;;
73776;SDS011;62088;50.240;2.696;2023-04-09T00:13:02;29.13;;;21.63;;
73776;SDS011;62088;50.240;2.696;2023-04-09T00:15:29;29.02;;;20.75;;
73776;SDS011;62088;50.240;2.696;2023-04-09T00:17:57;14.93;;;8.20;;
73776;SDS011;62088;50.240;2.696;2023-04-09T00:20:25;17.70;;;12.02;;
73776;SDS011;62088;50.240;2.696;2023-04-09T00:22:52;20.23;;;11.50;;
73776;SDS011;62088;50.240;2.696;2023-04-09T00:25:19;28.55;;;19.70;;
73776;SDS011;62088;50.240;2.696;2023-04-09T00:27:46;18.80;;;11.20;;
73776;SDS011;62088;50.240;2.696;2023-04-09T00:30:13;14.82;;;8.70;;
73776;SDS011;62088;50.240;2.696;2023-04-09T00:32:41;19.05;;;9.43;;
73776;SDS011;62088;50.240;2.696;2023-04-09T00:35:08;23.98;;;18.55;;
73776;SDS011;62088;50.240;2.696;2023-04-09T00:37:35;26.13;;;19.23;;
73776;SDS011;62088;50.240;2.696;2023-04-09T00:40:03;24.77;;;18.90;;
73776;SDS011;62088;50.240;2.696;2023-04-09T00:42:34;19.80;;;10.27;;
73776;SDS011;62088;50.240;2.696;2023-04-09T00:45:05;25.65;;;18.80;;
73776;SDS011;62088;50.240;2.696;2023-04-09T00:47:33;28.00;;;19.42;;
73776;SDS011;62088;50.240;2.696;2023-04-09T00:50:01;19.23;;;10.50;;
73776;SDS011;62088;50.240;2.696;2023-04-09T00:52:28;15.90;;;9.18;;
73776;SDS011;62088;50.240;2.696;2023-04-09T00:54:58;16.90;;;10.35;;
73776;SDS011;62088;50.240;2.696;2023-04-09T00:57:26;18.50;;;10.77;;
73776;SDS011;62088;50.240;2.696;2023-04-09T00:59:54;19.77;;;11.18;;
73776;SDS011;62088;50.240;2.696;2023-04-09T01:02:21;20.42;;;11.70;;
73776;SDS011;62088;50.240;2.696;2023-04-09T01:04:48;18.20;;;10.90;;
73776;SDS011;62088;50.240;2.696;2023-04-09T01:07:22;17.63;;;10.07;;
73776;SDS011;62088;50.240;2.696;2023-04-09T01:10:04;17.50;;;9.15;;
73776;SDS011;62088;50.240;2.696;2023-04-09T01:12:53;18.38;;;10.32;;
73776;SDS011;62088;50.240;2.696;2023-04-09T01:15:43;18.75;;;10.32;;
73776;SDS011;62088;50.240;2.696;2023-04-09T01:18:34;18.50;;;9.82;;
73776;SDS011;62088;50.240;2.696;2023-04-09T01:21:06;16.85;;;9.48;;
73776;SDS011;62088;50.240;2.696;2023-04-09T01:29:15;12.90;;;7.88;;
73776;SDS011;62088;50.240;2.696;2023-04-09T01:31:44;16.38;;;10.40;;
73776;SDS011;62088;50.240;2.696;2023-04-09T01:34:12;16.45;;;9.43;;
73776;SDS011;62088;50.240;2.696;2023-04-09T01:36:41;15.93;;;8.15;;
73776;SDS011;62088;50.240;2.696;2023-04-09T01:39:14;14.32;;;8.10;;
73776;SDS011;62088;50.240;2.696;2023-04-09T01:41:41;17.00;;;9.23;;
73776;SDS011;62088;50.240;2.696;2023-04-09T01:44:09;16.30;;;8.73;;
73776;SDS011;62088;50.240;2.696;2023-04-09T01:46:38;20.77;;;9.20;;
73776;SDS011;62088;50.240;2.696;2023-04-09T01:49:05;17.45;;;10.30;;
73776;SDS011;62088;50.240;2.696;2023-04-09T01:51:33;18.70;;;10.35;;
73776;SDS011;62088;50.240;2.696;2023-04-09T01:54:00;22.45;;;11.27;;
73776;SDS011;62088;50.240;2.696;2023-04-09T01:59:12;19.00;;;9.60;;
73776;SDS011;62088;50.240;2.696;2023-04-09T02:01:46;17.45;;;8.77;;
73776;SDS011;62088;50.240;2.696;2023-04-09T02:07:04;14.70;;;8.15;;
73776;SDS011;62088;50.240;2.696;2023-04-09T02:09:35;21.60;;;10.13;;
73776;SDS011;62088;50.240;2.696;2023-04-09T02:12:05;23.73;;;12.05;;
73776;SDS011;62088;50.240;2.696;2023-04-09T02:14:36;24.30;;;13.32;;
73776;SDS011;62088;50.240;2.696;2023-04-09T02:17:03;24.42;;;10.68;;
73776;SDS011;62088;50.240;2.696;2023-04-09T02:19:40;20.30;;;10.45;;
73776;SDS011;62088;50.240;2.696;2023-04-09T02:22:09;29.27;;;13.07;;
73776;SDS011;62088;50.240;2.696;2023-04-09T02:24:37;25.73;;;12.65;;
73776;SDS011;62088;50.240;2.696;2023-04-09T02:27:04;44.78;;;23.55;;
73776;SDS011;62088;50.240;2.696;2023-04-09T02:29:31;25.50;;;13.52;;
73776;SDS011;62088;50.240;2.696;2023-04-09T02:31:59;25.30;;;11.80;;
73776;SDS011;62088;50.240;2.696;2023-04-09T02:34:26;22.67;;;11.63;;
73776;SDS011;62088;50.240;2.696;2023-04-09T02:36:53;29.35;;;11.30;;
73776;SDS011;62088;50.240;2.696;2023-04-09T02:39:20;23.20;;;11.00;;
73776;SDS011;62088;50.240;2.696;2023-04-09T02:41:47;24.20;;;10.65;;
73776;SDS011;62088;50.240;2.696;2023-04-09T02:44:14;27.75;;;12.18;;
73776;SDS011;62088;50.240;2.696;2023-04-09T02:46:42;25.35;;;13.05;;
73776;SDS011;62088;50.240;2.696;2023-04-09T02:49:10;26.42;;;13.65;;
73776;SDS011;62088;50.240;2.696;2023-04-09T02:51:37;27.52;;;12.93;;
73776;SDS011;62088;50.240;2.696;2023-04-09T02:54:04;32.40;;;15.13;;
73776;SDS011;62088;50.240;2.696;2023-04-09T02:56:31;30.10;;;13.80;;
73776;SDS011;62088;50.240;2.696;2023-04-09T02:58:58;26.88;;;13.73;;
73776;SDS011;62088;50.240;2.696;2023-04-09T03:01:25;24.15;;;11.43;;
73776;SDS011;62088;50.240;2.696;2023-04-09T03:03:52;22.17;;;10.95;;
73776;SDS011;62088;50.240;2.696;2023-04-09T03:06:20;25.70;;;12.98;;
73776;SDS011;62088;50.240;2.696;2023-04-09T03:08:47;26.00;;;12.10;;
73776;SDS011;62088;50.240;2.696;2023-04-09T03:11:14;22.10;;;13.30;;
73776;SDS011;62088;50.240;2.696;2023-04-09T03:13:41;24.67;;;12.23;;
73776;SDS011;62088;50.240;2.696;2023-04-09T03:16:08;21.73;;;13.18;;
73776;SDS011;62088;50.240;2.696;2023-04-09T03:18:35;22.08;;;11.52;;
73776;SDS011;62088;50.240;2.696;2023-04-09T03:21:06;21.73;;;12.77;;
73776;SDS011;62088;50.240;2.696;2023-04-09T03:23:36;17.50;;;9.85;;
73776;SDS011;62088;50.240;2.696;2023-04-09T03:26:05;24.42;;;12.18;;
73776;SDS011;62088;50.240;2.696;2023-04-09T03:28:40;19.20;;;11.70;;
73776;SDS011;62088;50.240;2.696;2023-04-09T03:31:07;27.25;;;11.95;;
73776;SDS011;62088;50.240;2.696;2023-04-09T03:33:37;17.40;;;10.80;;
73776;SDS011;62088;50.240;2.696;2023-04-09T03:36:05;28.60;;;13.57;;
73776;SDS011;62088;50.240;2.696;2023-04-09T03:38:58;18.25;;;9.95;;
73776;SDS011;62088;50.240;2.696;2023-04-09T03:41:35;16.85;;;9.52;;
73776;SDS011;62088;50.240;2.696;2023-04-09T03:44:07;19.27;;;11.10;;
73776;SDS011;62088;50.240;2.696;2023-04-09T03:46:44;17.88;;;10.80;;
73776;SDS011;62088;50.240;2.696;2023-04-09T03:49:15;21.52;;;12.00;;
73776;SDS011;62088;50.240;2.696;2023-04-09T03:51:43;19.55;;;9.98;;
73776;SDS011;62088;50.240;2.696;2023-04-09T03:54:10;20.30;;;12.73;;
73776;SDS011;62088;50.240;2.696;2023-04-09T03:56:39;19.27;;;11.27;;
73776;SDS011;62088;50.240;2.696;2023-04-09T03:59:09;21.35;;;12.80;;
73776;SDS011;62088;50.240;2.696;2023-04-09T04:01:39;18.27;;;11.52;;
73776;SDS011;62088;50.240;2.696;2023-04-09T04:04:07;19.80;;;11.80;;
73776;SDS011;62088;50.240;2.696;2023-04-09T04:06:55;20.23;;;11.88;;
73776;SDS011;62088;50.240;2.696;2023-04-09T04:09:42;23.92;;;12.23;;
73776;SDS011;62088;50.240;2.696;2023-04-09T04:12:13;19.80;;;13.02;;
73776;SDS011;62088;50.240;2.696;2023-04-09T04:15:03;23.17;;;13.57;;
73776;SDS011;62088;50.240;2.696;2023-04-09T04:17:35;19.58;;;12.13;;
73776;SDS011;62088;50.240;2.696;2023-04-09T04:22:48;25.10;;;11.93;;
73776;SDS011;62088;50.240;2.696;2023-04-09T04:25:16;19.77;;;12.75;;
73776;SDS011;62088;50.240;2.696;2023-04-09T04:27:44;25.33;;;14.65;;
73776;SDS011;62088;50.240;2.696;2023-04-09T04:30:13;23.35;;;13.98;;
73776;SDS011;62088;50.240;2.696;2023-04-09T04:32:53;18.42;;;11.43;;
73776;SDS011;62088;50.240;2.696;2023-04-09T04:35:21;23.90;;;13.77;;
73776;SDS011;62088;50.240;2.696;2023-04-09T04:37:53;24.70;;;14.32;;
73776;SDS011;62088;50.240;2.696;2023-04-09T04:40:21;20.15;;;12.70;;
73776;SDS011;62088;50.240;2.696;2023-04-09T04:42:55;27.33;;;14.25;;
73776;SDS011;62088;50.240;2.696;2023-04-09T04:45:22;22.13;;;13.85;;
73776;SDS011;62088;50.240;2.696;2023-04-09T04:47:53;24.40;;;14.60;;
73776;SDS011;62088;50.240;2.696;2023-04-09T04:50:20;20.90;;;13.35;;
73776;SDS011;62088;50.240;2.696;2023-04-09T04:53:01;23.65;;;12.45;;
73776;SDS011;62088;50.240;2.696;2023-04-09T04:55:36;25.20;;;14.63;;
73776;SDS011;62088;50.240;2.696;2023-04-09T04:58:06;24.73;;;14.63;;
73776;SDS011;62088;50.240;2.696;2023-04-09T05:00:41;23.30;;;13.45;;
73776;SDS011;62088;50.240;2.696;2023-04-09T05:03:08;25.35;;;16.17;;
73776;SDS011;62088;50.240;2.696;2023-04-09T05:05:51;23.80;;;14.98;;
73776;SDS011;62088;50.240;2.696;2023-04-09T05:08:19;26.83;;;16.55;;
73776;SDS011;62088;50.240;2.696;2023-04-09T05:10:49;26.27;;;14.65;;
73776;SDS011;62088;50.240;2.696;2023-04-09T05:13:18;36.00;;;20.23;;
73776;SDS011;62088;50.240;2.696;2023-04-09T05:15:45;21.98;;;13.95;;
73776;SDS011;62088;50.240;2.696;2023-04-09T05:18:12;24.70;;;14.43;;
73776;SDS011;62088;50.240;2.696;2023-04-09T05:20:39;23.63;;;15.20;;
73776;SDS011;62088;50.240;2.696;2023-04-09T05:23:07;24.25;;;15.15;;
73776;SDS011;62088;50.240;2.696;2023-04-09T05:25:40;27.13;;;14.40;;
73776;SDS011;62088;50.240;2.696;2023-04-09T05:28:15;20.38;;;13.13;;
73776;SDS011;62088;50.240;2.696;2023-04-09T05:30:46;31.63;;;16.08;;
73776;SDS011;62088;50.240;2.696;2023-04-09T05:33:16;24.65;;;13.13;;
73776;SDS011;62088;50.240;2.696;2023-04-09T05:35:44;25.30;;;14.98;;
73776;SDS011;62088;50.240;2.696;2023-04-09T05:38:12;26.90;;;15.27;;
73776;SDS011;62088;50.240;2.696;2023-04-09T05:40:41;31.25;;;17.63;;
73776;SDS011;62088;50.240;2.696;2023-04-09T05:43:11;25.83;;;14.90;;
73776;SDS011;62088;50.240;2.696;2023-04-09T05:45:41;45.80;;;34.17;;
73776;SDS011;62088;50.240;2.696;2023-04-09T05:48:09;31.85;;;16.00;;
73776;SDS011;62088;50.240;2.696;2023-04-09T05:50:37;24.30;;;14.70;;
73776;SDS011;62088;50.240;2.696;2023-04-09T05:53:22;27.65;;;15.90;;
73776;SDS011;62088;50.240;2.696;2023-04-09T05:55:49;23.35;;;14.95;;
73776;SDS011;62088;50.240;2.696;2023-04-09T05:58:19;29.58;;;15.32;;
73776;SDS011;62088;50.240;2.696;2023-04-09T06:00:47;27.90;;;15.80;;
73776;SDS011;62088;50.240;2.696;2023-04-09T06:03:17;26.35;;;18.35;;
73776;SDS011;62088;50.240;2.696;2023-04-09T06:05:44;27.63;;;16.08;;
73776;SDS011;62088;50.240;2.696;2023-04-09T06:08:12;27.70;;;16.40;;
73776;SDS011;62088;50.240;2.696;2023-04-09T06:10:39;24.90;;;15.52;;
73776;SDS011;62088;50.240;2.696;2023-04-09T06:13:07;28.83;;;16.15;;
73776;SDS011;62088;50.240;2.696;2023-04-09T06:15:36;29.10;;;17.10;;
73776;SDS011;62088;50.240;2.696;2023-04-09T06:18:04;24.77;;;14.88;;
73776;SDS011;62088;50.240;2.696;2023-04-09T06:20:31;28.98;;;17.10;;
73776;SDS011;62088;50.240;2.696;2023-04-09T06:22:58;30.92;;;18.02;;
73776;SDS011;62088;50.240;2.696;2023-04-09T06:25:25;24.55;;;14.32;;
73776;SDS011;62088;50.240;2.696;2023-04-09T06:27:52;24.20;;;14.93;;
73776;SDS011;62088;50.240;2.696;2023-04-09T06:30:19;22.15;;;15.23;;
73776;SDS011;62088;50.240;2.696;2023-04-09T06:32:46;30.25;;;18.00;;
73776;SDS011;62088;50.240;2.696;2023-04-09T06:35:20;29.90;;;18.85;;
73776;SDS011;62088;50.240;2.696;2023-04-09T06:37:47;29.30;;;16.67;;
73776;SDS011;62088;50.240;2.696;2023-04-09T06:40:14;25.20;;;15.57;;
73776;SDS011;62088;50.240;2.696;2023-04-09T06:42:41;26.95;;;17.33;;
73776;SDS011;62088;50.240;2.696;2023-04-09T06:45:16;23.83;;;13.63;;
73776;SDS011;62088;50.240;2.696;2023-04-09T06:47:43;27.23;;;17.40;;
73776;SDS011;62088;50.240;2.696;2023-04-09T06:50:10;31.23;;;19.90;;
73776;SDS011;62088;50.240;2.696;2023-04-09T06:52:37;26.20;;;13.98;;
73776;SDS011;62088;50.240;2.696;2023-04-09T06:55:04;26.38;;;15.38;;
73776;SDS011;62088;50.240;2.696;2023-04-09T06:57:32;28.55;;;16.58;;
73776;SDS011;62088;50.240;2.696;2023-04-09T06:59:59;25.35;;;14.88;;
73776;SDS011;62088;50.240;2.696;2023-04-09T07:02:26;30.02;;;18.80;;
73776;SDS011;62088;50.240;2.696;2023-04-09T07:04:53;24.13;;;14.98;;
73776;SDS011;62088;50.240;2.696;2023-04-09T07:07:20;21.52;;;14.52;;
73776;SDS011;62088;50.240;2.696;2023-04-09T07:09:51;24.08;;;15.30;;
73776;SDS011;62088;50.240;2.696;2023-04-09T07:12:25;33.38;;;19.45;;
73776;SDS011;62088;50.240;2.696;2023-04-09T07:14:57;46.50;;;38.17;;
73776;SDS011;62088;50.240;2.696;2023-04-09T07:17:24;23.02;;;15.02;;
73776;SDS011;62088;50.240;2.696;2023-04-09T07:19:52;43.60;;;34.58;;
73776;SDS011;62088;50.240;2.696;2023-04-09T07:22:20;22.85;;;14.80;;
73776;SDS011;62088;50.240;2.696;2023-04-09T07:24:50;26.30;;;17.58;;
73776;SDS011;62088;50.240;2.696;2023-04-09T07:27:21;27.80;;;18.20;;
73776;SDS011;62088;50.240;2.696;2023-04-09T07:29:49;24.27;;;15.85;;
73776;SDS011;62088;50.240;2.696;2023-04-09T07:32:16;23.83;;;15.90;;
73776;SDS011;62088;50.240;2.696;2023-04-09T07:34:43;33.55;;;22.63;;
73776;SDS011;62088;50.240;2.696;2023-04-09T07:37:11;26.15;;;15.80;;
73776;SDS011;62088;50.240;2.696;2023-04-09T07:39:38;25.13;;;15.13;;
73776;SDS011;62088;50.240;2.696;2023-04-09T07:42:05;34.58;;;22.58;;
73776;SDS011;62088;50.240;2.696;2023-04-09T07:44:32;30.05;;;21.70;;
73776;SDS011;62088;50.240;2.696;2023-04-09T07:47:02;24.80;;;17.65;;
73776;SDS011;62088;50.240;2.696;2023-04-09T07:49:30;30.02;;;17.30;;
73776;SDS011;62088;50.240;2.696;2023-04-09T07:51:58;25.98;;;15.70;;
73776;SDS011;62088;50.240;2.696;2023-04-09T07:54:25;27.63;;;17.90;;
73776;SDS011;62088;50.240;2.696;2023-04-09T07:56:53;29.95;;;19.60;;
73776;SDS011;62088;50.240;2.696;2023-04-09T07:59:22;31.42;;;20.98;;
73776;SDS011;62088;50.240;2.696;2023-04-09T08:01:49;26.15;;;18.23;;
73776;SDS011;62088;50.240;2.696;2023-04-09T08:04:16;34.20;;;22.33;;
73776;SDS011;62088;50.240;2.696;2023-04-09T08:06:44;31.98;;;19.80;;
73776;SDS011;62088;50.240;2.696;2023-04-09T08:09:16;24.52;;;15.15;;
73776;SDS011;62088;50.240;2.696;2023-04-09T08:11:44;30.60;;;20.73;;
73776;SDS011;62088;50.240;2.696;2023-04-09T08:14:11;34.22;;;21.95;;
73776;SDS011;62088;50.240;2.696;2023-04-09T08:16:43;31.35;;;21.80;;
73776;SDS011;62088;50.240;2.696;2023-04-09T08:19:14;32.80;;;18.40;;
73776;SDS011;62088;50.240;2.696;2023-04-09T08:21:42;33.53;;;19.50;;
73776;SDS011;62088;50.240;2.696;2023-04-09T08:24:10;31.10;;;18.25;;
73776;SDS011;62088;50.240;2.696;2023-04-09T08:26:38;50.67;;;38.60;;
73776;SDS011;62088;50.240;2.696;2023-04-09T08:29:06;31.00;;;19.10;;
73776;SDS011;62088;50.240;2.696;2023-04-09T08:31:34;35.67;;;20.38;;
73776;SDS011;62088;50.240;2.696;2023-04-09T08:34:03;38.22;;;22.75;;
73776;SDS011;62088;50.240;2.696;2023-04-09T08:36:30;46.55;;;37.33;;
73776;SDS011;62088;50.240;2.696;2023-04-09T08:38:58;27.30;;;17.45;;
73776;SDS011;62088;50.240;2.696;2023-04-09T08:41:26;48.30;;;37.13;;
73776;SDS011;62088;50.240;2.696;2023-04-09T08:43:57;38.45;;;23.67;;
73776;SDS011;62088;50.240;2.696;2023-04-09T08:46:25;32.85;;;20.08;;
73776;SDS011;62088;50.240;2.696;2023-04-09T08:48:53;51.85;;;40.67;;
73776;SDS011;62088;50.240;2.696;2023-04-09T08:51:21;38.90;;;25.98;;
73776;SDS011;62088;50.240;2.696;2023-04-09T08:53:55;48.17;;;35.53;;
73776;SDS011;62088;50.240;2.696;2023-04-09T08:56:28;55.47;;;43.33;;
73776;SDS011;62088;50.240;2.696;2023-04-09T08:58:56;38.03;;;27.95;;
73776;SDS011;62088;50.240;2.696;2023-04-09T09:01:23;40.92;;;28.98;;
73776;SDS011;62088;50.240;2.696;2023-04-09T09:03:52;34.35;;;22.55;;
73776;SDS011;62088;50.240;2.696;2023-04-09T09:06:28;38.22;;;25.50;;
73776;SDS011;62088;50.240;2.696;2023-04-09T09:08:59;49.97;;;39.33;;
73776;SDS011;62088;50.240;2.696;2023-04-09T09:11:30;44.60;;;36.78;;
73776;SDS011;62088;50.240;2.696;2023-04-09T09:13:57;39.05;;;23.88;;
73776;SDS011;62088;50.240;2.696;2023-04-09T09:16:33;49.20;;;38.03;;
73776;SDS011;62088;50.240;2.696;2023-04-09T09:19:01;44.60;;;36.47;;
73776;SDS011;62088;50.240;2.696;2023-04-09T09:21:28;45.33;;;36.60;;
73776;SDS011;62088;50.240;2.696;2023-04-09T09:23:56;41.50;;;31.58;;
73776;SDS011;62088;50.240;2.696;2023-04-09T09:26:24;48.15;;;37.08;;
73776;SDS011;62088;50.240;2.696;2023-04-09T09:28:55;43.95;;;35.67;;
73776;SDS011;62088;50.240;2.696;2023-04-09T09:31:26;41.00;;;32.88;;
73776;SDS011;62088;50.240;2.696;2023-04-09T09:33:54;40.95;;;34.60;;
73776;SDS011;62088;50.240;2.696;2023-04-09T09:36:31;39.90;;;33.08;;
73776;SDS011;62088;50.240;2.696;2023-04-09T09:39:00;38.00;;;31.45;;
73776;SDS011;62088;50.240;2.696;2023-04-09T09:41:30;39.60;;;32.20;;
73776;SDS011;62088;50.240;2.696;2023-04-09T09:43:57;37.92;;;31.95;;
73776;SDS011;62088;50.240;2.696;2023-04-09T09:46:24;38.05;;;31.60;;
73776;SDS011;62088;50.240;2.696;2023-04-09T09:48:52;39.45;;;32.28;;
73776;SDS011;62088;50.240;2.696;2023-04-09T09:51:21;39.05;;;32.00;;
73776;SDS011;62088;50.240;2.696;2023-04-09T09:53:53;38.42;;;33.15;;
73776;SDS011;62088;50.240;2.696;2023-04-09T09:56:35;37.08;;;30.25;;
73776;SDS011;62088;50.240;2.696;2023-04-09T09:59:15;36.00;;;29.48;;
73776;SDS011;62088;50.240;2.696;2023-04-09T10:01:47;39.53;;;30.90;;
73776;SDS011;62088;50.240;2.696;2023-04-09T10:04:21;38.80;;;29.77;;
73776;SDS011;62088;50.240;2.696;2023-04-09T10:06:49;34.75;;;27.63;;
73776;SDS011;62088;50.240;2.696;2023-04-09T10:09:18;32.67;;;27.92;;
73776;SDS011;62088;50.240;2.696;2023-04-09T10:11:47;34.60;;;28.73;;
73776;SDS011;62088;50.240;2.696;2023-04-09T10:14:15;32.35;;;27.00;;
73776;SDS011;62088;50.240;2.696;2023-04-09T10:16:44;34.13;;;26.35;;
73776;SDS011;62088;50.240;2.696;2023-04-09T10:19:12;34.13;;;28.25;;
73776;SDS011;62088;50.240;2.696;2023-04-09T10:24:10;30.17;;;25.58;;
73776;SDS011;62088;50.240;2.696;2023-04-09T10:26:41;30.95;;;26.88;;
73776;SDS011;62088;50.240;2.696;2023-04-09T10:29:13;31.48;;;26.40;;
73776;SDS011;62088;50.240;2.696;2023-04-09T10:34:37;27.73;;;24.42;;
73776;SDS011;62088;50.240;2.696;2023-04-09T10:37:06;27.58;;;21.83;;
73776;SDS011;62088;50.240;2.696;2023-04-09T10:39:38;26.60;;;21.92;;
73776;SDS011;62088;50.240;2.696;2023-04-09T10:42:12;27.25;;;21.92;;
73776;SDS011;62088;50.240;2.696;2023-04-09T10:44:43;28.40;;;23.05;;
73776;SDS011;62088;50.240;2.696;2023-04-09T10:47:11;24.50;;;21.17;;
73776;SDS011;62088;50.240;2.696;2023-04-09T10:49:59;30.05;;;21.95;;
73776;SDS011;62088;50.240;2.696;2023-04-09T10:52:43;24.95;;;20.00;;
73776;SDS011;62088;50.240;2.696;2023-04-09T10:55:31;26.88;;;21.98;;
73776;SDS011;62088;50.240;2.696;2023-04-09T10:57:58;25.77;;;19.63;;
73776;SDS011;62088;50.240;2.696;2023-04-09T11:00:25;23.40;;;18.08;;
73776;SDS011;62088;50.240;2.696;2023-04-09T11:05:31;21.52;;;17.85;;
73776;SDS011;62088;50.240;2.696;2023-04-09T11:10:31;20.10;;;16.65;;
73776;SDS011;62088;50.240;2.696;2023-04-09T11:12:58;20.17;;;16.55;;
73776;SDS011;62088;50.240;2.696;2023-04-09T11:15:26;21.40;;;16.52;;
73776;SDS011;62088;50.240;2.696;2023-04-09T11:17:53;22.20;;;17.23;;
73776;SDS011;62088;50.240;2.696;2023-04-09T11:20:22;23.27;;;17.50;;
73776;SDS011;62088;50.240;2.696;2023-04-09T11:22:51;23.48;;;16.77;;
73776;SDS011;62088;50.240;2.696;2023-04-09T11:25:20;21.33;;;16.98;;
73776;SDS011;62088;50.240;2.696;2023-04-09T11:27:49;20.38;;;17.30;;
73776;SDS011;62088;50.240;2.696;2023-04-09T11:30:17;19.73;;;15.60;;
73776;SDS011;62088;50.240;2.696;2023-04-09T11:32:46;19.15;;;15.32;;
73776;SDS011;62088;50.240;2.696;2023-04-09T11:35:18;16.80;;;14.52;;
73776;SDS011;62088;50.240;2.696;2023-04-09T11:37:47;19.63;;;15.02;;
73776;SDS011;62088;50.240;2.696;2023-04-09T11:40:16;17.02;;;14.05;;
73776;SDS011;62088;50.240;2.696;2023-04-09T11:42:54;15.23;;;12.77;;
73776;SDS011;62088;50.240;2.696;2023-04-09T11:45:27;16.33;;;13.48;;
73776;SDS011;62088;50.240;2.696;2023-04-09T11:47:55;19.17;;;14.50;;
73776;SDS011;62088;50.240;2.696;2023-04-09T11:50:23;16.77;;;13.13;;
73776;SDS011;62088;50.240;2.696;2023-04-09T11:52:51;15.55;;;11.55;;
73776;SDS011;62088;50.240;2.696;2023-04-09T11:55:24;16.27;;;12.77;;
73776;SDS011;62088;50.240;2.696;2023-04-09T11:57:58;16.73;;;13.00;;
73776;SDS011;62088;50.240;2.696;2023-04-09T12:00:27;15.02;;;12.00;;
73776;SDS011;62088;50.240;2.696;2023-04-09T12:03:01;15.98;;;12.43;;
73776;SDS011;62088;50.240;2.696;2023-04-09T12:05:31;14.88;;;12.23;;
73776;SDS011;62088;50.240;2.696;2023-04-09T12:08:01;17.02;;;13.63;;
73776;SDS011;62088;50.240;2.696;2023-04-09T12:10:33;18.52;;;14.20;;
73776;SDS011;62088;50.240;2.696;2023-04-09T12:13:05;17.70;;;12.13;;
73776;SDS011;62088;50.240;2.696;2023-04-09T12:15:37;15.43;;;11.38;;
73776;SDS011;62088;50.240;2.696;2023-04-09T12:18:12;14.63;;;11.80;;
73776;SDS011;62088;50.240;2.696;2023-04-09T12:20:40;15.35;;;11.32;;
73776;SDS011;62088;50.240;2.696;2023-04-09T12:23:12;17.63;;;12.20;;
73776;SDS011;62088;50.240;2.696;2023-04-09T12:25:40;18.95;;;13.60;;
73776;SDS011;62088;50.240;2.696;2023-04-09T12:28:09;15.95;;;12.57;;
73776;SDS011;62088;50.240;2.696;2023-04-09T12:30:39;18.92;;;11.75;;
73776;SDS011;62088;50.240;2.696;2023-04-09T12:33:06;17.80;;;12.82;;
73776;SDS011;62088;50.240;2.696;2023-04-09T12:35:36;16.17;;;11.38;;
73776;SDS011;62088;50.240;2.696;2023-04-09T12:38:04;13.75;;;10.90;;
73776;SDS011;62088;50.240;2.696;2023-04-09T12:40:31;15.10;;;10.70;;
73776;SDS011;62088;50.240;2.696;2023-04-09T12:42:58;18.08;;;11.38;;
73776;SDS011;62088;50.240;2.696;2023-04-09T12:45:25;17.23;;;12.40;;
73776;SDS011;62088;50.240;2.696;2023-04-09T12:47:53;16.83;;;11.95;;
73776;SDS011;62088;50.240;2.696;2023-04-09T12:50:20;15.63;;;12.57;;
73776;SDS011;62088;50.240;2.696;2023-04-09T12:52:47;15.13;;;11.20;;
73776;SDS011;62088;50.240;2.696;2023-04-09T12:55:15;16.13;;;11.38;;
73776;SDS011;62088;50.240;2.696;2023-04-09T12:57:42;15.13;;;11.25;;
73776;SDS011;62088;50.240;2.696;2023-04-09T13:00:14;19.13;;;12.10;;
73776;SDS011;62088;50.240;2.696;2023-04-09T13:02:41;14.98;;;10.75;;
73776;SDS011;62088;50.240;2.696;2023-04-09T13:05:09;15.20;;;11.02;;
73776;SDS011;62088;50.240;2.696;2023-04-09T13:07:36;13.48;;;10.30;;
73776;SDS011;62088;50.240;2.696;2023-04-09T13:10:05;11.95;;;9.50;;
73776;SDS011;62088;50.240;2.696;2023-04-09T13:12:32;14.38;;;9.43;;
73776;SDS011;62088;50.240;2.696;2023-04-09T13:14:59;14.75;;;10.27;;
73776;SDS011;62088;50.240;2.696;2023-04-09T13:17:26;11.98;;;9.93;;
73776;SDS011;62088;50.240;2.696;2023-04-09T13:19:53;12.73;;;9.45;;
73776;SDS011;62088;50.240;2.696;2023-04-09T13:22:20;13.55;;;10.30;;
73776;SDS011;62088;50.240;2.696;2023-04-09T13:24:47;14.25;;;10.55;;
73776;SDS011;62088;50.240;2.696;2023-04-09T13:27:14;13.63;;;9.45;;
73776;SDS011;62088;50.240;2.696;2023-04-09T13:29:42;12.30;;;9.85;;
73776;SDS011;62088;50.240;2.696;2023-04-09T13:32:09;14.40;;;10.15;;
73776;SDS011;62088;50.240;2.696;2023-04-09T13:34:37;14.60;;;10.27;;
73776;SDS011;62088;50.240;2.696;2023-04-09T13:37:05;13.52;;;9.98;;
73776;SDS011;62088;50.240;2.696;2023-04-09T13:39:32;12.90;;;9.88;;
73776;SDS011;62088;50.240;2.696;2023-04-09T13:41:59;13.20;;;10.38;;
73776;SDS011;62088;50.240;2.696;2023-04-09T13:44:38;13.77;;;10.45;;
73776;SDS011;62088;50.240;2.696;2023-04-09T13:47:07;14.30;;;10.20;;
73776;SDS011;62088;50.240;2.696;2023-04-09T13:49:36;13.70;;;10.45;;
73776;SDS011;62088;50.240;2.696;2023-04-09T13:52:07;13.65;;;10.20;;
73776;SDS011;62088;50.240;2.696;2023-04-09T13:54:34;12.45;;;9.85;;
73776;SDS011;62088;50.240;2.696;2023-04-09T13:57:02;13.18;;;10.13;;
73776;SDS011;62088;50.240;2.696;2023-04-09T13:59:29;12.93;;;10.25;;
73776;SDS011;62088;50.240;2.696;2023-04-09T14:01:56;13.38;;;9.85;;
73776;SDS011;62088;50.240;2.696;2023-04-09T14:04:23;12.82;;;9.60;;
73776;SDS011;62088;50.240;2.696;2023-04-09T14:06:50;13.93;;;9.90;;
73776;SDS011;62088;50.240;2.696;2023-04-09T14:09:17;13.55;;;10.32;;
73776;SDS011;62088;50.240;2.696;2023-04-09T14:11:44;13.07;;;10.43;;
73776;SDS011;62088;50.240;2.696;2023-04-09T14:14:11;11.23;;;8.40;;
73776;SDS011;62088;50.240;2.696;2023-04-09T14:16:38;12.00;;;8.77;;
73776;SDS011;62088;50.240;2.696;2023-04-09T14:19:06;12.10;;;9.88;;
73776;SDS011;62088;50.240;2.696;2023-04-09T14:21:33;12.98;;;8.98;;
73776;SDS011;62088;50.240;2.696;2023-04-09T14:24:00;13.38;;;8.95;;
73776;SDS011;62088;50.240;2.696;2023-04-09T14:26:27;11.23;;;8.68;;
73776;SDS011;62088;50.240;2.696;2023-04-09T14:28:54;11.68;;;9.38;;
73776;SDS011;62088;50.240;2.696;2023-04-09T14:31:21;12.65;;;9.05;;
73776;SDS011;62088;50.240;2.696;2023-04-09T14:33:48;12.23;;;9.77;;
73776;SDS011;62088;50.240;2.696;2023-04-09T14:36:16;10.57;;;8.88;;
73776;SDS011;62088;50.240;2.696;2023-04-09T14:38:43;12.45;;;9.70;;
73776;SDS011;62088;50.240;2.696;2023-04-09T14:41:11;10.45;;;8.23;;
73776;SDS011;62088;50.240;2.696;2023-04-09T14:43:38;10.35;;;8.05;;
73776;SDS011;62088;50.240;2.696;2023-04-09T14:46:05;10.05;;;7.65;;
73776;SDS011;62088;50.240;2.696;2023-04-09T14:48:37;11.40;;;8.20;;
73776;SDS011;62088;50.240;2.696;2023-04-09T14:51:05;9.52;;;7.45;;
73776;SDS011;62088;50.240;2.696;2023-04-09T14:53:34;10.57;;;8.02;;
73776;SDS011;62088;50.240;2.696;2023-04-09T14:56:01;12.05;;;8.95;;
73776;SDS011;62088;50.240;2.696;2023-04-09T14:58:29;11.50;;;9.38;;
73776;SDS011;62088;50.240;2.696;2023-04-09T15:00:56;12.50;;;8.90;;